sensor_id;sensor_type;location;lat;lon;timestamp;pressure;altitude;pressure_sealevel;temperature;humidity
48774;BME280;34576;0.000;0.000;2022-10-17T00:04:29;97144.88;;;18.96;71.66
48774;BME280;34576;0.000;0.000;2022-10-17T00:11:30;97149.16;;;18.97;71.78
48774;BME280;34576;0.000;0.000;2022-10-17T00:18:30;97141.41;;;19.01;71.78
48774;BME280;34576;0.000;0.000;2022-10-17T00:25:30;97146.22;;;18.99;71.71
48774;BME280;34576;0.000;0.000;2022-10-17T00:32:31;97155.00;;;18.99;71.93
48774;BME280;34576;0.000;0.000;2022-10-17T00:39:31;97154.72;;;19.01;71.79
48774;BME280;34576;0.000;0.000;2022-10-17T00:46:35;97151.56;;;18.99;71.81
48774;BME280;34576;0.000;0.000;2022-10-17T00:53:36;97161.13;;;19.00;71.80
48774;BME280;34576;0.000;0.000;2022-10-17T01:00:38;97159.56;;;18.99;71.97
48774;BME280;34576;0.000;0.000;2022-10-17T01:07:39;97161.94;;;19.00;71.94
48774;BME280;34576;0.000;0.000;2022-10-17T01:14:49;97174.47;;;19.05;71.63
48774;BME280;34576;0.000;0.000;2022-10-17T01:21:54;97175.00;;;19.02;71.63
48774;BME280;34576;0.000;0.000;2022-10-17T01:36:14;97181.38;;;19.01;71.78
48774;BME280;34576;0.000;0.000;2022-10-17T01:50:22;97175.00;;;19.02;71.61
48774;BME280;34576;0.000;0.000;2022-10-17T01:57:28;97175.53;;;18.99;71.70
48774;BME280;34576;0.000;0.000;2022-10-17T02:04:30;97162.72;;;19.01;71.83
48774;BME280;34576;0.000;0.000;2022-10-17T02:11:30;97154.22;;;18.99;71.85
48774;BME280;34576;0.000;0.000;2022-10-17T02:18:46;97164.34;;;19.02;71.67
48774;BME280;34576;0.000;0.000;2022-10-17T02:25:53;97163.53;;;19.01;71.67
48774;BME280;34576;0.000;0.000;2022-10-17T02:32:57;97151.56;;;18.99;71.59
48774;BME280;34576;0.000;0.000;2022-10-17T02:39:58;97148.88;;;18.99;71.66
48774;BME280;34576;0.000;0.000;2022-10-17T02:47:06;97156.59;;;19.00;71.55
48774;BME280;34576;0.000;0.000;2022-10-17T03:01:12;97139.78;;;19.00;71.72
48774;BME280;34576;0.000;0.000;2022-10-17T03:08:13;97149.94;;;18.97;71.62
48774;BME280;34576;0.000;0.000;2022-10-17T03:15:13;97155.00;;;18.99;71.37
48774;BME280;34576;0.000;0.000;2022-10-17T03:22:14;97163.28;;;18.97;71.60
48774;BME280;34576;0.000;0.000;2022-10-17T03:29:18;97170.22;;;18.99;71.66
48774;BME280;34576;0.000;0.000;2022-10-17T03:36:19;97174.22;;;18.96;71.56
48774;BME280;34576;0.000;0.000;2022-10-17T03:43:21;97171.75;;;19.15;72.64
48774;BME280;34576;0.000;0.000;2022-10-17T03:50:21;97184.56;;;19.08;73.45
48774;BME280;34576;0.000;0.000;2022-10-17T03:57:22;97188.84;;;19.09;73.54
48774;BME280;34576;0.000;0.000;2022-10-17T04:04:23;97189.13;;;19.07;73.51
48774;BME280;34576;0.000;0.000;2022-10-17T04:11:23;97188.31;;;19.07;73.80
48774;BME280;34576;0.000;0.000;2022-10-17T04:18:24;97190.97;;;19.07;73.56
48774;BME280;34576;0.000;0.000;2022-10-17T04:25:24;97198.19;;;19.06;73.74
48774;BME280;34576;0.000;0.000;2022-10-17T04:32:25;97203.00;;;18.99;70.12
48774;BME280;34576;0.000;0.000;2022-10-17T04:39:33;97198.44;;;19.00;70.65
48774;BME280;34576;0.000;0.000;2022-10-17T04:46:34;97213.31;;;17.02;65.79
48774;BME280;34576;0.000;0.000;2022-10-17T04:53:35;97210.66;;;17.02;64.95
48774;BME280;34576;0.000;0.000;2022-10-17T05:00:36;97204.31;;;17.56;64.57
48774;BME280;34576;0.000;0.000;2022-10-17T05:07:47;97208.56;;;18.41;66.79
48774;BME280;34576;0.000;0.000;2022-10-17T05:14:51;97217.88;;;18.54;67.25
48774;BME280;34576;0.000;0.000;2022-10-17T05:21:52;97230.69;;;18.57;67.69
48774;BME280;34576;0.000;0.000;2022-10-17T05:28:52;97223.50;;;18.62;68.20
48774;BME280;34576;0.000;0.000;2022-10-17T05:35:56;97227.50;;;18.60;68.62
48774;BME280;34576;0.000;0.000;2022-10-17T05:42:56;97229.91;;;18.61;68.66
48774;BME280;34576;0.000;0.000;2022-10-17T05:49:58;97242.66;;;18.59;68.88
48774;BME280;34576;0.000;0.000;2022-10-17T05:57:09;97243.75;;;18.58;68.94
48774;BME280;34576;0.000;0.000;2022-10-17T06:04:09;97264.53;;;18.61;68.99
48774;BME280;34576;0.000;0.000;2022-10-17T06:11:11;97267.75;;;18.58;69.06
48774;BME280;34576;0.000;0.000;2022-10-17T06:18:12;97269.31;;;18.59;69.15
48774;BME280;34576;0.000;0.000;2022-10-17T06:25:12;97279.97;;;18.59;69.26
48774;BME280;34576;0.000;0.000;2022-10-17T06:32:13;97293.03;;;18.61;69.27
48774;BME280;34576;0.000;0.000;2022-10-17T06:39:14;97294.63;;;18.62;69.27
48774;BME280;34576;0.000;0.000;2022-10-17T06:46:20;97309.84;;;18.61;69.31
48774;BME280;34576;0.000;0.000;2022-10-17T06:53:33;97317.84;;;18.61;69.24
48774;BME280;34576;0.000;0.000;2022-10-17T07:01:04;97328.50;;;18.61;69.07
48774;BME280;34576;0.000;0.000;2022-10-17T07:08:05;97319.69;;;18.61;69.08
48774;BME280;34576;0.000;0.000;2022-10-17T07:15:05;97333.56;;;18.63;69.21
48774;BME280;34576;0.000;0.000;2022-10-17T07:22:06;97337.56;;;18.66;69.10
48774;BME280;34576;0.000;0.000;2022-10-17T07:29:08;97343.16;;;18.64;69.15
48774;BME280;34576;0.000;0.000;2022-10-17T07:36:16;97342.88;;;18.66;69.13
48774;BME280;34576;0.000;0.000;2022-10-17T07:43:17;97353.03;;;18.69;68.91
48774;BME280;34576;0.000;0.000;2022-10-17T07:50:18;97355.69;;;18.69;68.99
48774;BME280;34576;0.000;0.000;2022-10-17T07:57:19;97355.16;;;18.72;68.89
48774;BME280;34576;0.000;0.000;2022-10-17T08:04:19;97360.50;;;18.77;68.76
48774;BME280;34576;0.000;0.000;2022-10-17T08:11:19;97365.84;;;18.77;68.72
48774;BME280;34576;0.000;0.000;2022-10-17T08:18:21;97370.63;;;18.80;68.49
48774;BME280;34576;0.000;0.000;2022-10-17T08:25:22;97379.44;;;18.80;68.68
48774;BME280;34576;0.000;0.000;2022-10-17T08:32:24;97382.88;;;18.81;68.75
48774;BME280;34576;0.000;0.000;2022-10-17T08:39:25;97377.53;;;18.81;68.82
48774;BME280;34576;0.000;0.000;2022-10-17T08:46:32;97382.66;;;18.83;68.86
48774;BME280;34576;0.000;0.000;2022-10-17T08:53:36;97386.88;;;18.84;68.95
48774;BME280;34576;0.000;0.000;2022-10-17T09:00:39;97385.03;;;18.84;68.84
48774;BME280;34576;0.000;0.000;2022-10-17T09:21:49;97381.88;;;18.87;69.02
48774;BME280;34576;0.000;0.000;2022-10-17T09:28:52;97385.88;;;18.90;68.81
48774;BME280;34576;0.000;0.000;2022-10-17T09:35:53;97389.06;;;18.92;68.72
48774;BME280;34576;0.000;0.000;2022-10-17T09:42:54;97396.81;;;18.93;68.82
48774;BME280;34576;0.000;0.000;2022-10-17T09:49:54;97406.94;;;18.91;68.89
48774;BME280;34576;0.000;0.000;2022-10-17T09:56:55;97411.19;;;18.92;68.98
48774;BME280;34576;0.000;0.000;2022-10-17T10:04:13;97420.81;;;18.93;69.09
48774;BME280;34576;0.000;0.000;2022-10-17T10:11:13;97416.03;;;18.95;69.02
48774;BME280;34576;0.000;0.000;2022-10-17T10:25:24;97427.22;;;18.97;69.17
48774;BME280;34576;0.000;0.000;2022-10-17T10:32:28;97429.63;;;18.99;69.22
48774;BME280;34576;0.000;0.000;2022-10-17T10:40:03;97432.00;;;19.01;69.40
48774;BME280;34576;0.000;0.000;2022-10-17T10:47:13;97438.69;;;19.03;69.34
48774;BME280;34576;0.000;0.000;2022-10-17T10:54:19;97449.09;;;19.05;69.21
48774;BME280;34576;0.000;0.000;2022-10-17T11:01:27;97448.03;;;19.06;69.28
48774;BME280;34576;0.000;0.000;2022-10-17T11:08:32;97454.94;;;19.07;69.40
48774;BME280;34576;0.000;0.000;2022-10-17T11:15:42;97468.84;;;19.09;69.39
48774;BME280;34576;0.000;0.000;2022-10-17T11:22:47;97471.25;;;19.10;69.39
48774;BME280;34576;0.000;0.000;2022-10-17T11:29:48;97475.50;;;19.11;69.43
48774;BME280;34576;0.000;0.000;2022-10-17T11:36:49;97480.59;;;19.13;69.47
48774;BME280;34576;0.000;0.000;2022-10-17T11:44:17;97490.19;;;19.14;69.54
48774;BME280;34576;0.000;0.000;2022-10-17T11:51:12;97483.78;;;19.15;69.78
48774;BME280;34576;0.000;0.000;2022-10-17T12:05:19;97490.19;;;19.19;69.79
48774;BME280;34576;0.000;0.000;2022-10-17T12:12:29;97485.94;;;19.23;68.87
48774;BME280;34576;0.000;0.000;2022-10-17T12:19:31;97473.13;;;19.20;68.43
48774;BME280;34576;0.000;0.000;2022-10-17T12:26:32;97473.66;;;19.22;69.09
48774;BME280;34576;0.000;0.000;2022-10-17T12:40:50;97469.94;;;19.23;67.65
48774;BME280;34576;0.000;0.000;2022-10-17T12:47:50;97465.16;;;19.25;67.14
48774;BME280;34576;0.000;0.000;2022-10-17T12:55:04;97465.16;;;19.25;66.68
48774;BME280;34576;0.000;0.000;2022-10-17T13:02:07;97468.88;;;19.24;66.60
48774;BME280;34576;0.000;0.000;2022-10-17T13:09:34;97462.50;;;19.25;66.03
48774;BME280;34576;0.000;0.000;2022-10-17T13:16:36;97465.41;;;19.29;64.26
48774;BME280;34576;0.000;0.000;2022-10-17T13:23:37;97454.22;;;19.27;63.63
48774;BME280;34576;0.000;0.000;2022-10-17T13:30:37;97454.47;;;19.25;63.46
48774;BME280;34576;0.000;0.000;2022-10-17T13:37:39;97455.00;;;19.27;63.31
48774;BME280;34576;0.000;0.000;2022-10-17T13:44:40;97452.34;;;19.27;62.20
48774;BME280;34576;0.000;0.000;2022-10-17T13:51:44;97461.13;;;19.28;61.94
48774;BME280;34576;0.000;0.000;2022-10-17T13:58:46;97445.41;;;19.26;62.41
48774;BME280;34576;0.000;0.000;2022-10-17T14:12:59;97451.28;;;19.28;62.77
48774;BME280;34576;0.000;0.000;2022-10-17T14:20:01;97448.34;;;19.35;62.41
48774;BME280;34576;0.000;0.000;2022-10-17T14:27:23;97439.28;;;19.26;63.56
48774;BME280;34576;0.000;0.000;2022-10-17T14:34:26;97446.47;;;19.25;64.00
48774;BME280;34576;0.000;0.000;2022-10-17T14:41:30;97453.41;;;19.26;64.33
48774;BME280;34576;0.000;0.000;2022-10-17T14:48:31;97448.88;;;19.27;64.81
48774;BME280;34576;0.000;0.000;2022-10-17T14:55:33;97455.00;;;19.27;65.13
48774;BME280;34576;0.000;0.000;2022-10-17T15:02:34;97459.28;;;19.28;65.32
48774;BME280;34576;0.000;0.000;2022-10-17T15:09:35;97453.94;;;19.28;65.57
48774;BME280;34576;0.000;0.000;2022-10-17T15:16:35;97456.63;;;19.28;65.87
48774;BME280;34576;0.000;0.000;2022-10-17T15:23:38;97457.16;;;19.30;65.85
48774;BME280;34576;0.000;0.000;2022-10-17T15:30:38;97454.47;;;19.30;66.04
48774;BME280;34576;0.000;0.000;2022-10-17T15:37:39;97457.69;;;19.33;66.05
48774;BME280;34576;0.000;0.000;2022-10-17T15:44:39;97449.94;;;19.31;66.41
48774;BME280;34576;0.000;0.000;2022-10-17T15:51:43;97457.16;;;19.30;66.62
48774;BME280;34576;0.000;0.000;2022-10-17T15:58:43;97468.88;;;19.29;66.87
48774;BME280;34576;0.000;0.000;2022-10-17T16:05:43;97474.22;;;19.29;67.02
48774;BME280;34576;0.000;0.000;2022-10-17T16:12:44;97480.34;;;19.30;67.00
48774;BME280;34576;0.000;0.000;2022-10-17T16:19:44;97483.56;;;19.32;66.04
48774;BME280;34576;0.000;0.000;2022-10-17T16:26:44;97495.03;;;19.27;66.56
48774;BME280;34576;0.000;0.000;2022-10-17T16:33:45;97499.56;;;19.27;66.86
48774;BME280;34576;0.000;0.000;2022-10-17T16:40:45;97505.41;;;19.29;66.88
48774;BME280;34576;0.000;0.000;2022-10-17T16:47:46;97500.34;;;19.27;67.04
48774;BME280;34576;0.000;0.000;2022-10-17T16:54:47;97515.31;;;19.28;66.87
48774;BME280;34576;0.000;0.000;2022-10-17T17:01:47;97509.97;;;19.28;67.04
48774;BME280;34576;0.000;0.000;2022-10-17T17:08:47;97527.81;;;19.28;67.06
48774;BME280;34576;0.000;0.000;2022-10-17T17:15:47;97535.56;;;19.29;67.04
48774;BME280;34576;0.000;0.000;2022-10-17T17:22:52;97538.22;;;19.29;67.11
48774;BME280;34576;0.000;0.000;2022-10-17T17:29:52;97553.19;;;19.30;67.03
48774;BME280;34576;0.000;0.000;2022-10-17T17:36:53;97559.56;;;19.29;67.17
48774;BME280;34576;0.000;0.000;2022-10-17T17:43:53;97561.97;;;19.31;67.16
48774;BME280;34576;0.000;0.000;2022-10-17T17:50:54;97569.75;;;19.33;67.35
48774;BME280;34576;0.000;0.000;2022-10-17T17:57:55;97574.00;;;19.34;67.57
48774;BME280;34576;0.000;0.000;2022-10-17T18:04:55;97582.81;;;19.39;67.81
48774;BME280;34576;0.000;0.000;2022-10-17T18:11:55;97598.28;;;19.37;67.83
48774;BME280;34576;0.000;0.000;2022-10-17T18:18:56;97593.22;;;19.36;67.82
48774;BME280;34576;0.000;0.000;2022-10-17T18:25:57;97594.28;;;19.35;67.84
48774;BME280;34576;0.000;0.000;2022-10-17T18:32:59;97594.28;;;19.35;67.91
48774;BME280;34576;0.000;0.000;2022-10-17T18:40:00;97595.06;;;19.35;67.92
48774;BME280;34576;0.000;0.000;2022-10-17T18:47:02;97598.56;;;19.36;67.89
48774;BME280;34576;0.000;0.000;2022-10-17T18:54:02;97595.06;;;19.35;67.89
48774;BME280;34576;0.000;0.000;2022-10-17T19:01:07;97596.94;;;19.35;67.84
48774;BME280;34576;0.000;0.000;2022-10-17T19:08:08;97597.47;;;19.37;67.80
48774;BME280;34576;0.000;0.000;2022-10-17T19:15:08;97585.22;;;19.36;68.05
48774;BME280;34576;0.000;0.000;2022-10-17T19:22:09;97593.75;;;19.38;68.02
48774;BME280;34576;0.000;0.000;2022-10-17T19:29:11;97593.22;;;19.36;68.09
48774;BME280;34576;0.000;0.000;2022-10-17T19:36:12;97601.75;;;19.38;68.18
48774;BME280;34576;0.000;0.000;2022-10-17T19:43:12;97606.81;;;19.39;68.02
48774;BME280;34576;0.000;0.000;2022-10-17T19:50:12;97606.03;;;19.39;68.57
48774;BME280;34576;0.000;0.000;2022-10-17T19:57:13;97612.44;;;19.48;68.02
48774;BME280;34576;0.000;0.000;2022-10-17T20:04:13;97606.03;;;19.39;68.37
48774;BME280;34576;0.000;0.000;2022-10-17T20:11:18;97606.81;;;19.39;69.16
48774;BME280;34576;0.000;0.000;2022-10-17T20:18:18;97608.16;;;19.42;69.15
48774;BME280;34576;0.000;0.000;2022-10-17T20:25:19;97607.91;;;19.43;69.54
48774;BME280;34576;0.000;0.000;2022-10-17T20:32:19;97604.44;;;19.43;70.05
48774;BME280;34576;0.000;0.000;2022-10-17T20:39:19;97613.53;;;19.47;69.87
48774;BME280;34576;0.000;0.000;2022-10-17T20:46:20;97631.13;;;19.48;70.15
48774;BME280;34576;0.000;0.000;2022-10-17T20:53:21;97639.97;;;19.48;70.02
48774;BME280;34576;0.000;0.000;2022-10-17T21:00:21;97646.09;;;19.49;70.24
48774;BME280;34576;0.000;0.000;2022-10-17T21:07:21;97638.06;;;19.49;70.37
48774;BME280;34576;0.000;0.000;2022-10-17T21:14:24;97640.47;;;19.51;70.32
48774;BME280;34576;0.000;0.000;2022-10-17T21:21:28;97647.16;;;19.53;70.19
48774;BME280;34576;0.000;0.000;2022-10-17T21:28:29;97651.44;;;19.54;70.26
48774;BME280;34576;0.000;0.000;2022-10-17T21:35:29;97645.06;;;19.60;70.28
48774;BME280;34576;0.000;0.000;2022-10-17T21:42:30;97641.88;;;19.58;70.51
48774;BME280;34576;0.000;0.000;2022-10-17T21:49:30;97645.06;;;19.60;70.20
48774;BME280;34576;0.000;0.000;2022-10-17T21:56:30;97639.19;;;19.63;70.94
48774;BME280;34576;0.000;0.000;2022-10-17T22:03:35;97636.25;;;19.65;70.31
48774;BME280;34576;0.000;0.000;2022-10-17T22:17:37;97632.25;;;19.67;70.40
48774;BME280;34576;0.000;0.000;2022-10-17T22:24:37;97626.94;;;19.67;71.27
48774;BME280;34576;0.000;0.000;2022-10-17T22:31:38;97625.06;;;19.68;70.89
48774;BME280;34576;0.000;0.000;2022-10-17T22:38:38;97617.34;;;19.72;71.28
48774;BME280;34576;0.000;0.000;2022-10-17T22:45:39;97622.66;;;19.72;71.48
48774;BME280;34576;0.000;0.000;2022-10-17T22:52:40;97618.94;;;19.73;70.96
48774;BME280;34576;0.000;0.000;2022-10-17T22:59:40;97612.53;;;19.74;71.39
48774;BME280;34576;0.000;0.000;2022-10-17T23:06:40;97601.31;;;19.72;71.75
48774;BME280;34576;0.000;0.000;2022-10-17T23:13:40;97592.78;;;19.75;70.98
48774;BME280;34576;0.000;0.000;2022-10-17T23:20:41;97597.06;;;19.76;71.79
48774;BME280;34576;0.000;0.000;2022-10-17T23:27:41;97586.66;;;19.74;71.98
48774;BME280;34576;0.000;0.000;2022-10-17T23:34:41;97573.03;;;19.76;71.40
48774;BME280;34576;0.000;0.000;2022-10-17T23:41:42;97576.22;;;19.73;72.06
48774;BME280;34576;0.000;0.000;2022-10-17T23:48:42;97575.16;;;19.74;71.97
48774;BME280;34576;0.000;0.000;2022-10-17T23:55:42;97571.69;;;19.73;72.54
